sensor_id;sensor_type;location;lat;lon;timestamp;pressure;altitude;pressure_sealevel;temperature;humidity
68226;BME280;55045;49.410;11.030;2023-03-23T00:02:57;97488.97;;;7.69;100.00
68226;BME280;55045;49.410;11.030;2023-03-23T00:06:01;97481.66;;;7.60;100.00
68226;BME280;55045;49.410;11.030;2023-03-23T00:09:08;97487.50;;;7.82;100.00
68226;BME280;55045;49.410;11.030;2023-03-23T00:12:10;97476.59;;;7.75;100.00
68226;BME280;55045;49.410;11.030;2023-03-23T00:15:16;97476.00;;;7.70;100.00
68226;BME280;55045;49.410;11.030;2023-03-23T00:18:19;97480.34;;;7.51;100.00
68226;BME280;55045;49.410;11.030;2023-03-23T00:21:28;97489.25;;;7.44;100.00
68226;BME280;55045;49.410;11.030;2023-03-23T00:24:35;97474.16;;;7.91;100.00
68226;BME280;55045;49.410;11.030;2023-03-23T00:27:37;97464.22;;;8.01;100.00
68226;BME280;55045;49.410;11.030;2023-03-23T00:30:39;97461.28;;;8.08;100.00
68226;BME280;55045;49.410;11.030;2023-03-23T00:33:42;97471.03;;;8.02;100.00
68226;BME280;55045;49.410;11.030;2023-03-23T00:36:47;97457.22;;;8.03;100.00
68226;BME280;55045;49.410;11.030;2023-03-23T00:39:50;97446.00;;;8.21;100.00
68226;BME280;55045;49.410;11.030;2023-03-23T00:42:52;97437.63;;;8.16;100.00
68226;BME280;55045;49.410;11.030;2023-03-23T00:45:55;97437.94;;;8.27;100.00
68226;BME280;55045;49.410;11.030;2023-03-23T00:48:57;97440.09;;;8.36;100.00
68226;BME280;55045;49.410;11.030;2023-03-23T00:52:04;97454.13;;;8.14;100.00
68226;BME280;55045;49.410;11.030;2023-03-23T00:55:07;97442.88;;;8.32;100.00
68226;BME280;55045;49.410;11.030;2023-03-23T00:58:09;97448.22;;;8.29;100.00
68226;BME280;55045;49.410;11.030;2023-03-23T01:01:12;97455.47;;;8.40;100.00
68226;BME280;55045;49.410;11.030;2023-03-23T01:04:15;97462.81;;;8.47;100.00
68226;BME280;55045;49.410;11.030;2023-03-23T01:07:20;97447.66;;;8.57;100.00
68226;BME280;55045;49.410;11.030;2023-03-23T01:10:24;97447.63;;;8.41;100.00
68226;BME280;55045;49.410;11.030;2023-03-23T01:13:27;97447.75;;;8.55;100.00
68226;BME280;55045;49.410;11.030;2023-03-23T01:16:29;97447.25;;;8.49;100.00
68226;BME280;55045;49.410;11.030;2023-03-23T01:19:31;97445.06;;;8.74;100.00
68226;BME280;55045;49.410;11.030;2023-03-23T01:22:35;97438.34;;;8.87;100.00
68226;BME280;55045;49.410;11.030;2023-03-23T01:25:37;97430.44;;;8.90;100.00
68226;BME280;55045;49.410;11.030;2023-03-23T01:28:39;97419.09;;;8.93;100.00
68226;BME280;55045;49.410;11.030;2023-03-23T01:31:42;97421.13;;;9.19;100.00
68226;BME280;55045;49.410;11.030;2023-03-23T01:34:44;97421.06;;;9.21;100.00
68226;BME280;55045;49.410;11.030;2023-03-23T01:37:49;97425.22;;;9.23;100.00
68226;BME280;55045;49.410;11.030;2023-03-23T01:40:51;97417.81;;;9.33;100.00
68226;BME280;55045;49.410;11.030;2023-03-23T01:43:58;97413.38;;;9.51;100.00
68226;BME280;55045;49.410;11.030;2023-03-23T01:47:03;97408.19;;;9.51;100.00
68226;BME280;55045;49.410;11.030;2023-03-23T01:50:06;97417.13;;;9.61;100.00
68226;BME280;55045;49.410;11.030;2023-03-23T01:53:10;97404.09;;;9.63;100.00
68226;BME280;55045;49.410;11.030;2023-03-23T01:56:17;97409.09;;;9.66;100.00
68226;BME280;55045;49.410;11.030;2023-03-23T01:59:21;97414.72;;;9.88;100.00
68226;BME280;55045;49.410;11.030;2023-03-23T02:02:35;97413.75;;;9.75;100.00
68226;BME280;55045;49.410;11.030;2023-03-23T02:05:41;97410.59;;;9.70;100.00
68226;BME280;55045;49.410;11.030;2023-03-23T02:09:01;97400.75;;;9.61;100.00
68226;BME280;55045;49.410;11.030;2023-03-23T02:12:05;97399.47;;;9.68;100.00
68226;BME280;55045;49.410;11.030;2023-03-23T02:15:10;97395.22;;;9.67;100.00
68226;BME280;55045;49.410;11.030;2023-03-23T02:18:25;97389.19;;;9.82;100.00
68226;BME280;55045;49.410;11.030;2023-03-23T02:21:57;97386.44;;;9.69;100.00
68226;BME280;55045;49.410;11.030;2023-03-23T02:25:29;97377.28;;;9.64;100.00
68226;BME280;55045;49.410;11.030;2023-03-23T02:28:59;97367.16;;;9.59;100.00
68226;BME280;55045;49.410;11.030;2023-03-23T02:32:18;97367.47;;;9.85;100.00
68226;BME280;55045;49.410;11.030;2023-03-23T02:35:29;97358.31;;;9.63;100.00
68226;BME280;55045;49.410;11.030;2023-03-23T02:38:35;97365.66;;;9.71;100.00
68226;BME280;55045;49.410;11.030;2023-03-23T02:41:42;97361.75;;;9.64;100.00
68226;BME280;55045;49.410;11.030;2023-03-23T02:44:45;97360.19;;;9.61;100.00
68226;BME280;55045;49.410;11.030;2023-03-23T02:47:52;97327.88;;;9.52;100.00
68226;BME280;55045;49.410;11.030;2023-03-23T02:50:57;97344.47;;;9.48;100.00
68226;BME280;55045;49.410;11.030;2023-03-23T02:54:03;97356.66;;;9.62;100.00
68226;BME280;55045;49.410;11.030;2023-03-23T02:57:06;97350.28;;;9.68;100.00
68226;BME280;55045;49.410;11.030;2023-03-23T03:00:15;97360.78;;;9.80;100.00
68226;BME280;55045;49.410;11.030;2023-03-23T03:03:21;97354.19;;;9.75;100.00
68226;BME280;55045;49.410;11.030;2023-03-23T03:06:31;97361.06;;;9.76;100.00
68226;BME280;55045;49.410;11.030;2023-03-23T03:09:42;97358.97;;;9.67;100.00
68226;BME280;55045;49.410;11.030;2023-03-23T03:12:51;97356.47;;;9.81;100.00
68226;BME280;55045;49.410;11.030;2023-03-23T03:15:58;97331.91;;;9.42;100.00
68226;BME280;55045;49.410;11.030;2023-03-23T03:19:05;97348.38;;;9.71;100.00
68226;BME280;55045;49.410;11.030;2023-03-23T03:22:11;97348.91;;;9.62;100.00
68226;BME280;55045;49.410;11.030;2023-03-23T03:25:16;97344.56;;;9.63;100.00
68226;BME280;55045;49.410;11.030;2023-03-23T03:28:20;97341.25;;;9.75;100.00
68226;BME280;55045;49.410;11.030;2023-03-23T03:31:28;97343.41;;;9.82;100.00
68226;BME280;55045;49.410;11.030;2023-03-23T03:34:31;97336.09;;;9.59;100.00
68226;BME280;55045;49.410;11.030;2023-03-23T03:37:37;97330.00;;;9.60;100.00
68226;BME280;55045;49.410;11.030;2023-03-23T03:40:42;97267.59;;;9.05;100.00
68226;BME280;55045;49.410;11.030;2023-03-23T03:43:44;97332.47;;;9.47;100.00
68226;BME280;55045;49.410;11.030;2023-03-23T03:46:46;97330.88;;;9.61;100.00
68226;BME280;55045;49.410;11.030;2023-03-23T03:49:49;97332.47;;;9.47;100.00
68226;BME280;55045;49.410;11.030;2023-03-23T03:52:52;97322.28;;;9.44;100.00
68226;BME280;55045;49.410;11.030;2023-03-23T03:55:55;97321.19;;;9.48;100.00
68226;BME280;55045;49.410;11.030;2023-03-23T03:58:57;97318.53;;;9.34;100.00
68226;BME280;55045;49.410;11.030;2023-03-23T04:02:17;97328.53;;;9.56;100.00
68226;BME280;55045;49.410;11.030;2023-03-23T04:05:22;97328.78;;;9.51;100.00
68226;BME280;55045;49.410;11.030;2023-03-23T04:08:26;97323.94;;;9.45;100.00
68226;BME280;55045;49.410;11.030;2023-03-23T04:11:29;97329.78;;;9.49;100.00
68226;BME280;55045;49.410;11.030;2023-03-23T04:14:47;97335.44;;;9.56;100.00
68226;BME280;55045;49.410;11.030;2023-03-23T04:17:51;97334.94;;;9.49;100.00
68226;BME280;55045;49.410;11.030;2023-03-23T04:20:53;97335.19;;;9.60;100.00
68226;BME280;55045;49.410;11.030;2023-03-23T04:24:02;97336.94;;;9.60;100.00
68226;BME280;55045;49.410;11.030;2023-03-23T04:27:04;97335.13;;;9.62;100.00
68226;BME280;55045;49.410;11.030;2023-03-23T04:34:11;97332.13;;;9.53;100.00
68226;BME280;55045;49.410;11.030;2023-03-23T04:37:18;97323.44;;;9.55;100.00
68226;BME280;55045;49.410;11.030;2023-03-23T04:40:22;97326.13;;;9.53;100.00
68226;BME280;55045;49.410;11.030;2023-03-23T04:43:40;97330.50;;;9.67;100.00
68226;BME280;55045;49.410;11.030;2023-03-23T04:47:12;97329.94;;;9.62;100.00
68226;BME280;55045;49.410;11.030;2023-03-23T04:50:28;97316.72;;;9.66;100.00
68226;BME280;55045;49.410;11.030;2023-03-23T04:53:36;97324.91;;;9.59;100.00
68226;BME280;55045;49.410;11.030;2023-03-23T04:56:39;97324.59;;;9.65;100.00
68226;BME280;55045;49.410;11.030;2023-03-23T04:59:47;97333.16;;;9.81;100.00
68226;BME280;55045;49.410;11.030;2023-03-23T05:02:58;97333.50;;;9.75;100.00
68226;BME280;55045;49.410;11.030;2023-03-23T05:06:05;97337.56;;;9.79;100.00
68226;BME280;55045;49.410;11.030;2023-03-23T05:09:09;97335.91;;;9.78;100.00
68226;BME280;55045;49.410;11.030;2023-03-23T05:12:11;97328.50;;;9.72;100.00
68226;BME280;55045;49.410;11.030;2023-03-23T05:15:35;97335.97;;;9.76;100.00
68226;BME280;55045;49.410;11.030;2023-03-23T05:18:39;97328.31;;;9.75;100.00
68226;BME280;55045;49.410;11.030;2023-03-23T05:21:45;97331.25;;;9.69;100.00
68226;BME280;55045;49.410;11.030;2023-03-23T05:24:48;97331.00;;;9.73;100.00
68226;BME280;55045;49.410;11.030;2023-03-23T05:27:53;97326.41;;;9.93;100.00
68226;BME280;55045;49.410;11.030;2023-03-23T05:31:04;97323.53;;;9.83;100.00
68226;BME280;55045;49.410;11.030;2023-03-23T05:34:08;97317.00;;;9.92;100.00
68226;BME280;55045;49.410;11.030;2023-03-23T05:37:21;97317.06;;;9.90;100.00
68226;BME280;55045;49.410;11.030;2023-03-23T05:40:30;97320.63;;;10.03;100.00
68226;BME280;55045;49.410;11.030;2023-03-23T05:43:42;97315.44;;;10.03;100.00
68226;BME280;55045;49.410;11.030;2023-03-23T05:47:14;97318.94;;;10.02;100.00
68226;BME280;55045;49.410;11.030;2023-03-23T05:50:27;97317.66;;;10.09;100.00
68226;BME280;55045;49.410;11.030;2023-03-23T05:53:31;97317.56;;;10.11;100.00
68226;BME280;55045;49.410;11.030;2023-03-23T05:56:33;97315.72;;;10.13;100.00
68226;BME280;55045;49.410;11.030;2023-03-23T05:59:56;97322.06;;;10.37;100.00
68226;BME280;55045;49.410;11.030;2023-03-23T06:02:59;97331.88;;;10.32;100.00
68226;BME280;55045;49.410;11.030;2023-03-23T06:06:22;97340.69;;;10.44;100.00
68226;BME280;55045;49.410;11.030;2023-03-23T06:09:30;97331.97;;;10.45;100.00
68226;BME280;55045;49.410;11.030;2023-03-23T06:12:39;97329.47;;;10.58;100.00
68226;BME280;55045;49.410;11.030;2023-03-23T06:15:41;97331.22;;;10.57;100.00
68226;BME280;55045;49.410;11.030;2023-03-23T06:19:07;97330.78;;;10.65;100.00
68226;BME280;55045;49.410;11.030;2023-03-23T06:22:12;97327.50;;;10.90;100.00
68226;BME280;55045;49.410;11.030;2023-03-23T06:25:34;97328.63;;;10.86;100.00
68226;BME280;55045;49.410;11.030;2023-03-23T06:28:37;97331.38;;;10.83;100.00
68226;BME280;55045;49.410;11.030;2023-03-23T06:31:43;97339.22;;;11.10;100.00
68226;BME280;55045;49.410;11.030;2023-03-23T06:34:46;97336.09;;;11.05;100.00
68226;BME280;55045;49.410;11.030;2023-03-23T06:38:03;97338.59;;;11.06;100.00
68226;BME280;55045;49.410;11.030;2023-03-23T06:41:15;97342.50;;;10.99;100.00
68226;BME280;55045;49.410;11.030;2023-03-23T06:44:17;97337.50;;;10.96;100.00
68226;BME280;55045;49.410;11.030;2023-03-23T06:47:20;97339.63;;;11.04;100.00
68226;BME280;55045;49.410;11.030;2023-03-23T06:50:23;97337.81;;;11.18;100.00
68226;BME280;55045;49.410;11.030;2023-03-23T06:53:26;97345.19;;;11.39;100.00
68226;BME280;55045;49.410;11.030;2023-03-23T06:56:32;97345.91;;;11.41;100.00
68226;BME280;55045;49.410;11.030;2023-03-23T06:59:35;97345.44;;;11.48;100.00
68226;BME280;55045;49.410;11.030;2023-03-23T07:02:38;97339.50;;;11.46;100.00
68226;BME280;55045;49.410;11.030;2023-03-23T07:05:41;97333.53;;;11.71;100.00
68226;BME280;55045;49.410;11.030;2023-03-23T07:08:45;97338.31;;;11.92;100.00
68226;BME280;55045;49.410;11.030;2023-03-23T07:11:54;97341.84;;;11.91;100.00
68226;BME280;55045;49.410;11.030;2023-03-23T07:15:05;97344.34;;;12.05;100.00
68226;BME280;55045;49.410;11.030;2023-03-23T07:18:09;97342.06;;;12.13;100.00
68226;BME280;55045;49.410;11.030;2023-03-23T07:21:17;97350.81;;;12.12;100.00
68226;BME280;55045;49.410;11.030;2023-03-23T07:24:20;97354.56;;;12.08;100.00
68226;BME280;55045;49.410;11.030;2023-03-23T07:27:46;97367.34;;;12.11;100.00
68226;BME280;55045;49.410;11.030;2023-03-23T07:30:50;97369.94;;;12.11;100.00
68226;BME280;55045;49.410;11.030;2023-03-23T07:33:53;97360.16;;;12.15;100.00
68226;BME280;55045;49.410;11.030;2023-03-23T07:36:56;97367.94;;;11.89;100.00
68226;BME280;55045;49.410;11.030;2023-03-23T07:40:02;97373.75;;;12.05;100.00
68226;BME280;55045;49.410;11.030;2023-03-23T07:43:17;97376.78;;;11.99;100.00
68226;BME280;55045;49.410;11.030;2023-03-23T07:46:38;97390.53;;;12.14;100.00
68226;BME280;55045;49.410;11.030;2023-03-23T07:49:47;97382.00;;;12.25;100.00
68226;BME280;55045;49.410;11.030;2023-03-23T07:53:00;97388.13;;;12.11;100.00
68226;BME280;55045;49.410;11.030;2023-03-23T07:56:06;97382.88;;;12.38;100.00
68226;BME280;55045;49.410;11.030;2023-03-23T07:59:09;97390.34;;;12.17;100.00
68226;BME280;55045;49.410;11.030;2023-03-23T08:02:14;97382.00;;;12.25;100.00
68226;BME280;55045;49.410;11.030;2023-03-23T08:05:27;97391.41;;;12.27;100.00
68226;BME280;55045;49.410;11.030;2023-03-23T08:09:02;97403.47;;;12.28;100.00
68226;BME280;55045;49.410;11.030;2023-03-23T08:12:26;97398.03;;;12.31;100.00
68226;BME280;55045;49.410;11.030;2023-03-23T08:15:51;97402.63;;;12.40;100.00
68226;BME280;55045;49.410;11.030;2023-03-23T08:19:07;97395.00;;;12.25;100.00
68226;BME280;55045;49.410;11.030;2023-03-23T08:22:28;97405.13;;;12.29;100.00
68226;BME280;55045;49.410;11.030;2023-03-23T08:25:47;97415.63;;;12.28;100.00
68226;BME280;55045;49.410;11.030;2023-03-23T08:28:50;97411.97;;;12.30;100.00
68226;BME280;55045;49.410;11.030;2023-03-23T08:32:16;97414.69;;;12.42;100.00
68226;BME280;55045;49.410;11.030;2023-03-23T08:35:38;97391.28;;;12.16;100.00
68226;BME280;55045;49.410;11.030;2023-03-23T08:39:07;97410.31;;;12.29;100.00
68226;BME280;55045;49.410;11.030;2023-03-23T08:42:29;97408.72;;;12.14;100.00
68226;BME280;55045;49.410;11.030;2023-03-23T08:45:43;97385.53;;;12.11;100.00
68226;BME280;55045;49.410;11.030;2023-03-23T08:49:10;97416.34;;;12.30;100.00
68226;BME280;55045;49.410;11.030;2023-03-23T08:52:31;97423.03;;;12.47;100.00
68226;BME280;55045;49.410;11.030;2023-03-23T08:55:55;97420.72;;;12.42;100.00
68226;BME280;55045;49.410;11.030;2023-03-23T08:59:22;97421.38;;;12.71;100.00
68226;BME280;55045;49.410;11.030;2023-03-23T09:02:46;97423.25;;;12.69;100.00
68226;BME280;55045;49.410;11.030;2023-03-23T09:05:58;97432.84;;;12.81;100.00
68226;BME280;55045;49.410;11.030;2023-03-23T09:09:08;97429.91;;;12.86;100.00
68226;BME280;55045;49.410;11.030;2023-03-23T09:12:11;97426.78;;;12.81;100.00
68226;BME280;55045;49.410;11.030;2023-03-23T09:15:15;97432.44;;;12.87;100.00
68226;BME280;55045;49.410;11.030;2023-03-23T09:18:18;97427.41;;;12.97;100.00
68226;BME280;55045;49.410;11.030;2023-03-23T09:21:22;97434.38;;;12.96;100.00
68226;BME280;55045;49.410;11.030;2023-03-23T09:24:24;97435.22;;;12.84;100.00
68226;BME280;55045;49.410;11.030;2023-03-23T09:27:27;97437.59;;;13.13;100.00
68226;BME280;55045;49.410;11.030;2023-03-23T09:30:31;97426.97;;;13.16;100.00
68226;BME280;55045;49.410;11.030;2023-03-23T09:33:34;97439.38;;;13.25;100.00
68226;BME280;55045;49.410;11.030;2023-03-23T09:36:38;97441.44;;;13.33;100.00
68226;BME280;55045;49.410;11.030;2023-03-23T09:39:41;97448.25;;;13.22;100.00
68226;BME280;55045;49.410;11.030;2023-03-23T09:42:51;97445.31;;;13.27;100.00
68226;BME280;55045;49.410;11.030;2023-03-23T09:46:03;97450.88;;;13.46;100.00
68226;BME280;55045;49.410;11.030;2023-03-23T09:49:10;97444.56;;;13.38;100.00
68226;BME280;55045;49.410;11.030;2023-03-23T09:52:17;97445.06;;;13.43;100.00
68226;BME280;55045;49.410;11.030;2023-03-23T09:55:20;97442.38;;;13.68;100.00
68226;BME280;55045;49.410;11.030;2023-03-23T09:58:26;97450.19;;;13.68;100.00
68226;BME280;55045;49.410;11.030;2023-03-23T10:01:32;97450.19;;;13.81;100.00
68226;BME280;55045;49.410;11.030;2023-03-23T10:04:39;97453.63;;;13.69;100.00
68226;BME280;55045;49.410;11.030;2023-03-23T10:07:44;97459.66;;;13.82;100.00
68226;BME280;55045;49.410;11.030;2023-03-23T10:10:55;97465.69;;;13.82;100.00
68226;BME280;55045;49.410;11.030;2023-03-23T10:14:18;97467.91;;;13.76;100.00
68226;BME280;55045;49.410;11.030;2023-03-23T10:17:27;97469.56;;;13.77;100.00
68226;BME280;55045;49.410;11.030;2023-03-23T10:20:43;97469.56;;;13.77;100.00
68226;BME280;55045;49.410;11.030;2023-03-23T10:23:53;97468.13;;;13.73;100.00
68226;BME280;55045;49.410;11.030;2023-03-23T10:27:04;97479.28;;;13.75;100.00
68226;BME280;55045;49.410;11.030;2023-03-23T10:34:15;97484.81;;;13.70;100.00
68226;BME280;55045;49.410;11.030;2023-03-23T10:37:22;97491.34;;;13.76;100.00
68226;BME280;55045;49.410;11.030;2023-03-23T10:40:27;97491.34;;;13.76;100.00
68226;BME280;55045;49.410;11.030;2023-03-23T10:43:32;97498.22;;;13.77;100.00
68226;BME280;55045;49.410;11.030;2023-03-23T10:46:40;97494.50;;;13.81;100.00
68226;BME280;55045;49.410;11.030;2023-03-23T10:49:51;97493.47;;;13.71;100.00
68226;BME280;55045;49.410;11.030;2023-03-23T10:52:57;97499.63;;;13.70;100.00
68226;BME280;55045;49.410;11.030;2023-03-23T10:56:00;97495.78;;;13.63;100.00
68226;BME280;55045;49.410;11.030;2023-03-23T10:59:12;97500.88;;;13.64;100.00
68226;BME280;55045;49.410;11.030;2023-03-23T11:02:17;97497.03;;;13.70;100.00
68226;BME280;55045;49.410;11.030;2023-03-23T11:05:25;97501.28;;;13.71;100.00
68226;BME280;55045;49.410;11.030;2023-03-23T11:08:30;97502.53;;;13.65;100.00
68226;BME280;55045;49.410;11.030;2023-03-23T11:11:38;97508.09;;;13.61;100.00
68226;BME280;55045;49.410;11.030;2023-03-23T11:14:43;97500.28;;;13.61;100.00
68226;BME280;55045;49.410;11.030;2023-03-23T11:17:55;97510.47;;;13.64;100.00
68226;BME280;55045;49.410;11.030;2023-03-23T11:20:59;97526.75;;;13.54;100.00
68226;BME280;55045;49.410;11.030;2023-03-23T11:24:01;97511.75;;;13.45;100.00
68226;BME280;55045;49.410;11.030;2023-03-23T11:27:04;97512.97;;;13.65;100.00
68226;BME280;55045;49.410;11.030;2023-03-23T11:30:11;97519.47;;;13.60;100.00
68226;BME280;55045;49.410;11.030;2023-03-23T11:33:21;97521.03;;;13.49;100.00
68226;BME280;55045;49.410;11.030;2023-03-23T11:36:31;97526.03;;;13.52;100.00
68226;BME280;55045;49.410;11.030;2023-03-23T11:39:46;97450.53;;;13.02;100.00
68226;BME280;55045;49.410;11.030;2023-03-23T11:42:57;97498.41;;;13.37;100.00
68226;BME280;55045;49.410;11.030;2023-03-23T11:46:04;97516.09;;;13.58;100.00
68226;BME280;55045;49.410;11.030;2023-03-23T11:49:12;97516.94;;;13.58;100.00
68226;BME280;55045;49.410;11.030;2023-03-23T11:52:22;97518.69;;;13.58;100.00
68226;BME280;55045;49.410;11.030;2023-03-23T11:55:28;97523.63;;;13.49;100.00
68226;BME280;55045;49.410;11.030;2023-03-23T11:58:32;97521.53;;;13.54;100.00
68226;BME280;55045;49.410;11.030;2023-03-23T12:01:46;97524.75;;;13.58;100.00
68226;BME280;55045;49.410;11.030;2023-03-23T12:05:14;97513.41;;;13.59;100.00
68226;BME280;55045;49.410;11.030;2023-03-23T12:08:44;97518.59;;;13.72;100.00
68226;BME280;55045;49.410;11.030;2023-03-23T12:11:57;97523.28;;;13.67;100.00
68226;BME280;55045;49.410;11.030;2023-03-23T12:15:10;97447.63;;;13.19;100.00
68226;BME280;55045;49.410;11.030;2023-03-23T12:18:24;97503.25;;;13.80;100.00
68226;BME280;55045;49.410;11.030;2023-03-23T12:21:36;97496.69;;;13.98;100.00
68226;BME280;55045;49.410;11.030;2023-03-23T12:24:50;97482.47;;;13.91;100.00
68226;BME280;55045;49.410;11.030;2023-03-23T12:27:59;97500.44;;;14.07;100.00
68226;BME280;55045;49.410;11.030;2023-03-23T12:31:12;97493.72;;;14.16;100.00
68226;BME280;55045;49.410;11.030;2023-03-23T12:34:26;97493.88;;;14.49;100.00
68226;BME280;55045;49.410;11.030;2023-03-23T12:37:39;97490.31;;;14.50;100.00
68226;BME280;55045;49.410;11.030;2023-03-23T12:40:54;97487.88;;;14.36;100.00
68226;BME280;55045;49.410;11.030;2023-03-23T12:44:02;97485.66;;;14.43;100.00
68226;BME280;55045;49.410;11.030;2023-03-23T12:47:15;97496.66;;;14.35;100.00
68226;BME280;55045;49.410;11.030;2023-03-23T12:50:26;97493.16;;;14.23;100.00
68226;BME280;55045;49.410;11.030;2023-03-23T12:53:33;97493.78;;;14.27;100.00
68226;BME280;55045;49.410;11.030;2023-03-23T12:56:43;97496.59;;;14.24;100.00
68226;BME280;55045;49.410;11.030;2023-03-23T12:59:52;97495.66;;;14.25;100.00
68226;BME280;55045;49.410;11.030;2023-03-23T13:02:59;97485.22;;;14.25;100.00
68226;BME280;55045;49.410;11.030;2023-03-23T13:06:05;97496.66;;;14.35;100.00
68226;BME280;55045;49.410;11.030;2023-03-23T13:09:14;97487.31;;;14.44;100.00
68226;BME280;55045;49.410;11.030;2023-03-23T13:12:20;97490.69;;;14.46;100.00
68226;BME280;55045;49.410;11.030;2023-03-23T13:15:29;97488.91;;;14.46;100.00
68226;BME280;55045;49.410;11.030;2023-03-23T13:18:41;97484.66;;;14.56;100.00
68226;BME280;55045;49.410;11.030;2023-03-23T13:21:53;97480.19;;;14.69;100.00
68226;BME280;55045;49.410;11.030;2023-03-23T13:25:00;97485.72;;;14.54;100.00
68226;BME280;55045;49.410;11.030;2023-03-23T13:28:14;97491.53;;;14.57;100.00
68226;BME280;55045;49.410;11.030;2023-03-23T13:31:21;97493.69;;;14.52;100.00
68226;BME280;55045;49.410;11.030;2023-03-23T13:34:29;97494.00;;;14.48;100.00
68226;BME280;55045;49.410;11.030;2023-03-23T13:37:32;97493.50;;;14.43;100.00
68226;BME280;55045;49.410;11.030;2023-03-23T13:40:35;97480.13;;;14.47;100.00
68226;BME280;55045;49.410;11.030;2023-03-23T13:43:41;97475.88;;;14.57;100.00
68226;BME280;55045;49.410;11.030;2023-03-23T13:46:54;97445.25;;;14.48;100.00
68226;BME280;55045;49.410;11.030;2023-03-23T13:49:58;97471.06;;;14.64;100.00
68226;BME280;55045;49.410;11.030;2023-03-23T13:53:11;97454.91;;;14.35;100.00
68226;BME280;55045;49.410;11.030;2023-03-23T13:56:17;97458.41;;;14.47;100.00
68226;BME280;55045;49.410;11.030;2023-03-23T13:59:46;97454.16;;;14.46;100.00
68226;BME280;55045;49.410;11.030;2023-03-23T14:02:49;97451.44;;;14.58;100.00
68226;BME280;55045;49.410;11.030;2023-03-23T14:06:03;97447.34;;;14.43;100.00
68226;BME280;55045;49.410;11.030;2023-03-23T14:09:16;97443.28;;;14.39;100.00
68226;BME280;55045;49.410;11.030;2023-03-23T14:12:25;97459.25;;;14.47;100.00
68226;BME280;55045;49.410;11.030;2023-03-23T14:15:30;97443.41;;;14.37;100.00
68226;BME280;55045;49.410;11.030;2023-03-23T14:18:36;97455.09;;;14.45;100.00
68226;BME280;55045;49.410;11.030;2023-03-23T14:21:40;97441.88;;;14.35;100.00
68226;BME280;55045;49.410;11.030;2023-03-23T14:24:43;97445.59;;;14.44;100.00
68226;BME280;55045;49.410;11.030;2023-03-23T14:27:46;97451.53;;;14.46;100.00
68226;BME280;55045;49.410;11.030;2023-03-23T14:30:54;97443.75;;;14.57;100.00
68226;BME280;55045;49.410;11.030;2023-03-23T14:34:02;97440.28;;;14.45;100.00
68226;BME280;55045;49.410;11.030;2023-03-23T14:37:04;97425.88;;;14.39;100.00
68226;BME280;55045;49.410;11.030;2023-03-23T14:40:15;97427.22;;;14.45;100.00
68226;BME280;55045;49.410;11.030;2023-03-23T14:43:20;97439.25;;;14.35;100.00
68226;BME280;55045;49.410;11.030;2023-03-23T14:46:24;97445.91;;;14.39;100.00
68226;BME280;55045;49.410;11.030;2023-03-23T14:49:30;97429.41;;;14.38;100.00
68226;BME280;55045;49.410;11.030;2023-03-23T14:52:35;97445.19;;;14.37;100.00
68226;BME280;55045;49.410;11.030;2023-03-23T14:55:41;97430.50;;;14.36;100.00
68226;BME280;55045;49.410;11.030;2023-03-23T14:58:44;97450.78;;;14.44;100.00
68226;BME280;55045;49.410;11.030;2023-03-23T15:01:50;97415.75;;;14.24;100.00
68226;BME280;55045;49.410;11.030;2023-03-23T15:04:56;97436.41;;;14.62;100.00
68226;BME280;55045;49.410;11.030;2023-03-23T15:08:03;97448.13;;;14.56;100.00
68226;BME280;55045;49.410;11.030;2023-03-23T15:11:08;97461.16;;;14.45;100.00
68226;BME280;55045;49.410;11.030;2023-03-23T15:14:16;97454.34;;;14.43;100.00
68226;BME280;55045;49.410;11.030;2023-03-23T15:17:22;97411.44;;;14.11;100.00
68226;BME280;55045;49.410;11.030;2023-03-23T15:20:31;97448.41;;;14.40;100.00
68226;BME280;55045;49.410;11.030;2023-03-23T15:23:45;97448.16;;;14.32;100.00
68226;BME280;55045;49.410;11.030;2023-03-23T15:26:47;97454.75;;;14.25;100.00
68226;BME280;55045;49.410;11.030;2023-03-23T15:29:51;97425.47;;;13.98;100.00
68226;BME280;55045;49.410;11.030;2023-03-23T15:33:01;97467.34;;;14.07;100.00
68226;BME280;55045;49.410;11.030;2023-03-23T15:36:07;97456.34;;;14.04;100.00
68226;BME280;55045;49.410;11.030;2023-03-23T15:39:11;97431.53;;;13.98;100.00
68226;BME280;55045;49.410;11.030;2023-03-23T15:42:23;97414.22;;;13.97;100.00
68226;BME280;55045;49.410;11.030;2023-03-23T15:45:27;97420.66;;;14.04;100.00
68226;BME280;55045;49.410;11.030;2023-03-23T15:48:32;97409.03;;;14.08;100.00
68226;BME280;55045;49.410;11.030;2023-03-23T15:51:34;97407.63;;;14.04;100.00
68226;BME280;55045;49.410;11.030;2023-03-23T15:54:38;97408.84;;;14.11;100.00
68226;BME280;55045;49.410;11.030;2023-03-23T15:57:40;97409.84;;;13.98;100.00
68226;BME280;55045;49.410;11.030;2023-03-23T16:00:44;97415.06;;;13.98;100.00
68226;BME280;55045;49.410;11.030;2023-03-23T16:03:51;97419.44;;;13.97;100.00
68226;BME280;55045;49.410;11.030;2023-03-23T16:06:55;97403.97;;;13.83;100.00
68226;BME280;55045;49.410;11.030;2023-03-23T16:10:00;97416.53;;;13.89;100.00
68226;BME280;55045;49.410;11.030;2023-03-23T16:13:04;97424.75;;;13.96;100.00
68226;BME280;55045;49.410;11.030;2023-03-23T16:16:12;97418.25;;;13.90;100.00
68226;BME280;55045;49.410;11.030;2023-03-23T16:19:18;97414.06;;;13.88;100.00
68226;BME280;55045;49.410;11.030;2023-03-23T16:22:25;97425.31;;;13.88;100.00
68226;BME280;55045;49.410;11.030;2023-03-23T16:25:28;97427.66;;;13.80;100.00